Time;durP1;ratioP1;P1;durP2;ratioP2;P2;SDS_P1;SDS_P2;PMS_P1;PMS_P2;Temp;Humidity;BMP_temperature;BMP_pressure;BME280_temperature;BME280_humidity;BME280_pressure;Samples;Min_cycle;Max_cycle;Signal;HPM_P1;HPM_P2
2023/03/19 00:02:18;;;;;;;436.33;174.03;;;;;;;2.19;nan;98539.28;5027498;28;20176;-58
2023/03/19 00:04:45;;;;;;;436.93;166.80;;;;;;;2.00;nan;98519.63;5028000;28;20072;-60
2023/03/19 00:07:11;;;;;;;428.90;149.70;;;;;;;2.10;nan;98539.16;5027706;28;20464;-59
2023/03/19 00:09:37;;;;;;;442.43;160.63;;;;;;;2.09;nan;98539.97;5026098;28;20757;-60
2023/03/19 00:12:03;;;;;;;446.60;173.47;;;;;;;2.19;nan;98539.28;5024401;28;20824;-59
2023/03/19 00:14:28;;;;;;;440.93;162.67;;;;;;;2.14;nan;98525.72;5026126;28;20101;-59
2023/03/19 00:16:54;;;;;;;440.60;164.77;;;;;;;2.23;nan;98553.66;5024534;28;20496;-59
2023/03/19 00:19:20;;;;;;;444.00;160.97;;;;;;;2.16;nan;98551.91;5023962;28;20543;-59
2023/03/19 00:21:46;;;;;;;439.80;158.43;;;;;;;2.17;nan;98556.09;5027104;28;20048;-58
2023/03/19 00:24:12;;;;;;;435.60;160.10;;;;;;;2.22;nan;98562.06;5025199;28;20339;-59
2023/03/19 00:26:38;;;;;;;436.17;152.10;;;;;;;2.16;nan;98555.28;5027303;28;20084;-59
2023/03/19 00:29:05;;;;;;;439.57;158.70;;;;;;;2.03;nan;98534.88;5036471;28;20132;-59
2023/03/19 00:31:30;;;;;;;438.97;159.70;;;;;;;2.16;nan;98554.44;5028035;28;20475;-59
2023/03/19 00:33:57;;;;;;;443.00;161.10;;;;;;;2.00;nan;98539.84;5033275;28;20738;-59
2023/03/19 00:36:24;;;;;;;438.40;156.73;;;;;;;2.09;nan;98558.53;5027401;28;20083;-58
2023/03/19 00:38:50;;;;;;;444.77;159.57;;;;;;;1.99;nan;98555.88;5014034;28;20295;-59
2023/03/19 00:41:17;;;;;;;441.43;159.40;;;;;;;1.78;nan;98531.97;5029241;28;20296;-59
2023/03/19 00:43:46;;;;;;;445.73;162.33;;;;;;;1.80;nan;98545.50;5028335;28;20045;-58
2023/03/19 00:46:13;;;;;;;442.20;159.10;;;;;;;1.84;nan;98547.25;5031542;28;20346;-59
2023/03/19 00:48:42;;;;;;;445.13;152.50;;;;;;;1.76;nan;98550.50;5031578;28;20274;-58
2023/03/19 00:51:10;;;;;;;442.53;150.90;;;;;;;1.71;nan;98536.94;5036477;28;20280;-58
2023/03/19 00:53:38;;;;;;;445.37;149.10;;;;;;;1.51;nan;98511.41;5035045;28;20099;-59
2023/03/19 00:56:05;;;;;;;449.90;158.47;;;;;;;1.58;nan;98533.38;5029633;28;20303;-58
2023/03/19 00:58:31;;;;;;;443.50;154.00;;;;;;;1.51;nan;98526.56;5030056;28;20291;-59
2023/03/19 01:00:56;;;;;;;441.87;150.30;;;;;;;1.50;nan;98527.38;5014079;28;20814;-59
2023/03/19 01:03:22;;;;;;;444.07;155.43;;;;;;;1.37;nan;98511.19;5031731;28;20061;-60
2023/03/19 01:05:49;;;;;;;441.60;148.00;;;;;;;1.56;nan;98537.59;5031999;28;20045;-60
2023/03/19 01:08:16;;;;;;;439.20;147.30;;;;;;;1.53;nan;98534.16;5031422;28;20122;-58
2023/03/19 01:10:42;;;;;;;449.00;157.27;;;;;;;1.52;nan;98525.75;5031367;28;20287;-59
2023/03/19 01:13:09;;;;;;;438.43;150.60;;;;;;;1.60;nan;98530.91;5030551;28;21654;-59
2023/03/19 01:15:41;;;;;;;436.23;152.30;;;;;;;1.53;nan;98529.94;5048257;28;20276;-57
2023/03/19 01:18:09;;;;;;;442.83;153.90;;;;;;;1.45;nan;98531.50;5030534;28;20346;-59
2023/03/19 01:20:37;;;;;;;439.20;156.13;;;;;;;1.48;nan;98525.66;5039770;28;20303;-59
2023/03/19 01:23:05;;;;;;;434.93;147.83;;;;;;;1.28;nan;98512.72;5039250;28;20949;-59
2023/03/19 01:25:31;;;;;;;440.30;145.63;;;;;;;1.38;nan;98534.75;5046788;28;20283;-59
2023/03/19 01:28:02;;;;;;;444.63;158.20;;;;;;;1.49;nan;98533.25;5029810;28;20666;-59
2023/03/19 01:30:27;;;;;;;444.40;152.07;;;;;;;1.52;nan;98538.38;5028875;28;20295;-59
2023/03/19 01:33:12;;;;;;;446.50;151.57;;;;;;;1.47;nan;98532.38;5030784;28;20342;-60
2023/03/19 01:36:02;;;;;;;439.80;144.83;;;;;;;1.50;nan;98537.47;5031504;28;20284;-59
2023/03/19 01:38:34;;;;;;;446.33;153.57;;;;;;;1.20;nan;98496.59;5030175;28;20307;-57
2023/03/19 01:41:03;;;;;;;443.60;151.07;;;;;;;1.37;nan;98528.88;5034393;28;20547;-58
2023/03/19 01:43:31;;;;;;;442.77;151.63;;;;;;;1.35;nan;98529.69;5034701;28;20402;-57
2023/03/19 01:46:20;;;;;;;444.80;154.37;;;;;;;1.29;nan;98525.38;5025560;28;20102;-57
2023/03/19 01:48:58;;;;;;;443.03;149.03;;;;;;;1.35;nan;98522.97;5038832;28;20331;-58
2023/03/19 01:51:29;;;;;;;444.97;149.63;;;;;;;1.35;nan;98509.47;5028529;28;20666;-59
2023/03/19 01:53:58;;;;;;;443.87;151.33;;;;;;;1.33;nan;98518.69;5031530;28;20382;-59
2023/03/19 01:56:40;;;;;;;444.57;154.30;;;;;;;1.23;nan;98507.59;5044708;28;20643;-59
2023/03/19 01:59:20;;;;;;;445.33;153.53;;;;;;;1.13;nan;98503.25;5032759;28;20308;-60
2023/03/19 02:02:20;;;;;;;445.27;149.70;;;;;;;1.21;nan;98508.41;5029597;28;20789;-58
2023/03/19 02:04:51;;;;;;;443.03;147.87;;;;;;;1.10;nan;98503.19;5029692;28;20314;-58
2023/03/19 02:07:18;;;;;;;442.67;159.90;;;;;;;1.17;nan;98511.72;5030747;28;20854;-60
2023/03/19 02:09:44;;;;;;;445.57;158.90;;;;;;;1.17;nan;98512.56;5026129;28;20303;-58
2023/03/19 02:12:11;;;;;;;441.57;152.10;;;;;;;1.29;nan;98519.47;5028239;28;20288;-58
2023/03/19 02:14:37;;;;;;;446.00;156.90;;;;;;;1.13;nan;98500.72;5032682;28;20300;-58
2023/03/19 02:17:04;;;;;;;445.23;158.77;;;;;;;1.31;nan;98527.94;5028927;28;20302;-58
2023/03/19 02:19:38;;;;;;;448.33;156.37;;;;;;;1.31;nan;98522.88;5031169;28;20037;-58
2023/03/19 02:22:05;;;;;;;447.58;152.75;;;;;;;1.33;nan;98523.75;5038387;28;20327;-59
2023/03/19 02:24:40;;;;;;;447.00;156.83;;;;;;;1.29;nan;98522.84;5038638;28;20465;-59
2023/03/19 02:27:11;;;;;;;445.10;149.10;;;;;;;1.22;nan;98523.59;5032206;28;20303;-58
2023/03/19 02:29:40;;;;;;;445.27;156.60;;;;;;;1.18;nan;98538.66;5027816;28;20822;-58
2023/03/19 02:32:07;;;;;;;447.10;150.23;;;;;;;1.13;nan;98530.16;5028189;28;20947;-58
2023/03/19 02:34:42;;;;;;;441.77;151.37;;;;;;;0.96;nan;98509.69;5031329;28;20438;-57
2023/03/19 02:37:20;;;;;;;438.33;144.10;;;;;;;1.08;nan;98536.78;5030418;28;20299;-58
2023/03/19 02:40:11;;;;;;;441.37;148.73;;;;;;;1.08;nan;98530.06;5030693;28;20045;-58
2023/03/19 02:42:37;;;;;;;439.93;142.37;;;;;;;0.97;nan;98521.50;5031720;28;20299;-58
2023/03/19 02:45:03;;;;;;;441.23;149.03;;;;;;;1.11;nan;98534.31;5029622;28;20750;-58
2023/03/19 02:47:29;;;;;;;442.00;151.47;;;;;;;0.83;nan;98503.56;5026695;28;20049;-57
2023/03/19 02:49:54;;;;;;;443.17;147.63;;;;;;;1.00;nan;98545.91;5029385;28;20288;-57
2023/03/19 02:52:20;;;;;;;441.17;145.90;;;;;;;1.05;nan;98546.84;5025496;28;20508;-57
2023/03/19 02:54:47;;;;;;;440.97;149.27;;;;;;;1.13;nan;98535.19;5028513;28;20071;-57
2023/03/19 02:57:13;;;;;;;440.80;149.63;;;;;;;1.09;nan;98541.03;5029573;28;20144;-59
2023/03/19 02:59:38;;;;;;;440.87;150.80;;;;;;;0.99;nan;98540.00;5029514;28;20307;-58
2023/03/19 03:02:05;;;;;;;438.83;145.93;;;;;;;0.90;nan;98553.31;5025946;28;20690;-58
2023/03/19 03:04:32;;;;;;;437.80;141.33;;;;;;;0.86;nan;98545.66;5030173;28;20041;-60
2023/03/19 03:06:58;;;;;;;437.27;141.40;;;;;;;0.83;nan;98538.91;5028289;28;20292;-58
2023/03/19 03:09:24;;;;;;;429.97;143.30;;;;;;;0.65;nan;98523.44;5029754;28;20279;-61
2023/03/19 03:11:50;;;;;;;421.92;135.75;;;;;;;0.69;nan;98547.88;5027866;28;20048;-58
2023/03/19 03:14:16;;;;;;;430.53;140.50;;;;;;;0.73;nan;98543.75;5029797;28;20045;-59
2023/03/19 03:16:42;;;;;;;421.93;142.60;;;;;;;0.61;nan;98525.88;5027410;28;20510;-58
2023/03/19 03:19:07;;;;;;;416.57;138.27;;;;;;;0.69;nan;98547.03;5036501;28;20907;-58
2023/03/19 03:21:34;;;;;;;417.05;133.98;;;;;;;0.73;nan;98548.78;5028440;28;20114;-57
2023/03/19 03:24:00;;;;;;;413.83;133.83;;;;;;;0.58;nan;98534.25;5029882;28;20049;-57
2023/03/19 03:26:26;;;;;;;417.47;132.50;;;;;;;0.84;nan;98550.69;5028993;28;20523;-57
2023/03/19 03:28:51;;;;;;;429.60;139.53;;;;;;;0.77;nan;98551.41;5026137;28;20736;-58
2023/03/19 03:31:18;;;;;;;430.63;139.97;;;;;;;0.84;nan;98572.56;5029685;28;20068;-58
2023/03/19 03:33:44;;;;;;;426.88;140.23;;;;;;;0.86;nan;98571.75;5029583;28;20048;-57
2023/03/19 03:36:11;;;;;;;432.20;145.27;;;;;;;0.87;nan;98572.59;5025708;28;20395;-58
2023/03/19 03:38:37;;;;;;;425.00;135.38;;;;;;;0.67;nan;98554.59;5025155;28;20045;-57
2023/03/19 03:41:03;;;;;;;421.17;138.60;;;;;;;0.77;nan;98578.28;5029223;28;20140;-59
2023/03/19 03:43:29;;;;;;;431.48;142.90;;;;;;;0.74;nan;98575.72;5035887;28;20077;-61
2023/03/19 03:45:55;;;;;;;426.77;136.77;;;;;;;0.73;nan;98564.78;5029473;28;20159;-59
2023/03/19 03:48:21;;;;;;;428.17;142.87;;;;;;;0.73;nan;98566.44;5030071;28;20067;-59
2023/03/19 03:50:47;;;;;;;426.37;135.57;;;;;;;0.78;nan;98577.47;5038091;28;20307;-59
2023/03/19 03:53:16;;;;;;;437.93;143.77;;;;;;;0.67;nan;98571.41;5032044;28;20307;-60
2023/03/19 03:55:42;;;;;;;438.13;147.50;;;;;;;0.63;nan;98567.97;5029190;28;20307;-57
2023/03/19 03:58:08;;;;;;;443.77;164.97;;;;;;;0.76;nan;98595.13;5019557;28;20113;-58
2023/03/19 04:00:34;;;;;;;440.07;140.30;;;;;;;0.73;nan;98597.56;5035046;28;20045;-58
2023/03/19 04:03:00;;;;;;;441.30;147.97;;;;;;;0.82;nan;98600.28;5027076;28;20837;-58
2023/03/19 04:05:26;;;;;;;444.17;155.97;;;;;;;0.73;nan;98584.97;5027014;28;20304;-57
2023/03/19 04:07:52;;;;;;;456.97;179.33;;;;;;;0.71;nan;98580.72;5030286;28;20733;-58
2023/03/19 04:10:18;;;;;;;456.93;176.67;;;;;;;0.67;nan;98563.81;5015303;28;20075;-57
2023/03/19 04:12:44;;;;;;;460.97;181.77;;;;;;;0.70;nan;98568.91;5030367;28;20276;-57
2023/03/19 04:15:11;;;;;;;469.13;206.37;;;;;;;0.64;nan;98557.03;5030048;28;20043;-58
2023/03/19 04:17:39;;;;;;;455.77;179.43;;;;;;;0.79;nan;98585.09;5029775;28;20304;-58
2023/03/19 04:20:06;;;;;;;458.00;186.70;;;;;;;0.72;nan;98580.72;5027280;28;20299;-57
2023/03/19 04:22:32;;;;;;;475.97;212.83;;;;;;;0.75;nan;98578.28;5029556;28;20210;-58
2023/03/19 04:24:58;;;;;;;452.70;170.73;;;;;;;0.66;nan;98562.13;5040416;28;20316;-58
2023/03/19 04:27:24;;;;;;;458.37;160.03;;;;;;;0.81;nan;98587.63;5034331;28;20814;-59
2023/03/19 04:29:50;;;;;;;472.10;198.00;;;;;;;0.60;nan;98567.88;5036910;28;20068;-59
2023/03/19 04:32:17;;;;;;;458.63;177.00;;;;;;;0.54;nan;98567.78;5036842;28;20383;-59
2023/03/19 04:34:42;;;;;;;460.63;191.20;;;;;;;0.56;nan;98586.31;5028616;28;20881;-59
2023/03/19 04:37:12;;;;;;;461.77;180.27;;;;;;;0.51;nan;98587.88;5038264;28;20161;-59
2023/03/19 04:39:44;;;;;;;467.57;182.87;;;;;;;0.39;nan;98573.38;5032445;28;20602;-59
2023/03/19 04:42:11;;;;;;;464.47;188.03;;;;;;;0.49;nan;98586.16;5029472;28;20382;-63
2023/03/19 04:44:44;;;;;;;452.02;176.60;;;;;;;0.80;nan;98583.41;5029073;28;20291;-59
2023/03/19 04:47:11;;;;;;;448.65;164.75;;;;;;;1.09;nan;98589.00;5024568;28;20064;-58
2023/03/19 04:49:57;;;;;;;446.27;158.25;;;;;;;1.15;nan;98592.44;5028534;28;20060;-58
2023/03/19 04:52:24;;;;;;;447.88;167.00;;;;;;;0.95;nan;98592.94;5028391;28;20491;-58
2023/03/19 04:54:50;;;;;;;440.23;184.10;;;;;;;1.19;nan;98595.91;5028437;28;20045;-56
2023/03/19 04:57:16;;;;;;;424.88;156.95;;;;;;;0.74;nan;98566.50;5027870;28;20045;-58
2023/03/19 04:59:45;;;;;;;419.63;151.82;;;;;;;0.81;nan;98603.59;5043212;28;20041;-58
2023/03/19 05:02:13;;;;;;;440.77;145.15;;;;;;;0.61;nan;98596.50;5026774;28;20069;-60
2023/03/19 05:04:40;;;;;;;446.83;155.23;;;;;;;0.51;nan;98592.09;5036065;28;20053;-58
2023/03/19 05:07:10;;;;;;;443.77;151.53;;;;;;;0.37;nan;98592.66;5028849;28;20538;-57
2023/03/19 05:09:36;;;;;;;442.53;150.90;;;;;;;0.28;nan;98584.91;5013451;28;20287;-58
2023/03/19 05:12:03;;;;;;;444.30;150.15;;;;;;;0.05;nan;98565.06;5026869;28;20308;-58
2023/03/19 05:14:35;;;;;;;440.70;143.80;;;;;;;0.13;nan;98578.72;5028242;28;20060;-58
2023/03/19 05:17:14;;;;;;;434.30;152.93;;;;;;;0.14;nan;98581.25;5032821;28;20159;-58
2023/03/19 05:19:48;;;;;;;443.48;183.90;;;;;;;0.16;nan;98578.78;5027233;28;20072;-59
2023/03/19 05:22:16;;;;;;;417.90;137.32;;;;;;;-0.02;nan;98554.88;5029094;28;20068;-59
2023/03/19 05:24:42;;;;;;;423.02;138.10;;;;;;;0.14;nan;98570.31;5028477;28;20051;-59
2023/03/19 05:27:07;;;;;;;424.87;139.53;;;;;;;0.25;nan;98582.34;5030526;28;20041;-57
2023/03/19 05:29:42;;;;;;;426.75;137.00;;;;;;;0.23;nan;98585.63;5037937;28;20048;-58
2023/03/19 05:32:16;;;;;;;307.52;101.20;;;;;;;0.26;nan;98593.25;5029856;28;20049;-57
2023/03/19 05:34:43;;;;;;;419.70;136.38;;;;;;;0.16;nan;98589.72;5039750;28;20053;-58
2023/03/19 05:37:09;;;;;;;423.23;138.00;;;;;;;0.25;nan;98606.69;5026238;28;20057;-57
2023/03/19 05:39:36;;;;;;;407.77;132.57;;;;;;;0.32;nan;98606.00;5027369;28;20303;-59
2023/03/19 05:42:06;;;;;;;424.50;132.20;;;;;;;0.38;nan;98601.09;5031685;28;20076;-59
2023/03/19 05:44:32;;;;;;;424.00;132.70;;;;;;;0.42;nan;98607.91;5040364;28;20307;-59
2023/03/19 05:47:22;;;;;;;422.23;134.33;;;;;;;0.45;nan;98588.63;5039235;28;20350;-57
2023/03/19 05:49:52;;;;;;;425.20;134.80;;;;;;;0.61;nan;98601.53;5038855;28;20352;-57
2023/03/19 05:52:18;;;;;;;435.37;137.37;;;;;;;0.75;nan;98603.50;5028939;28;20488;-57
2023/03/19 05:54:48;;;;;;;430.93;133.43;;;;;;;0.80;nan;98606.97;5035470;28;20053;-57
2023/03/19 05:57:23;;;;;;;431.07;136.27;;;;;;;0.87;nan;98618.88;5018250;28;20382;-59
2023/03/19 05:59:58;;;;;;;434.30;143.80;;;;;;;1.05;nan;98620.03;5043751;28;20791;-57
2023/03/19 06:02:33;;;;;;;436.85;144.93;;;;;;;1.14;nan;98612.63;5029916;28;20045;-60
2023/03/19 06:05:13;;;;;;;429.80;138.73;;;;;;;1.33;nan;98619.69;5029980;28;20045;-59
2023/03/19 06:07:39;;;;;;;433.17;148.63;;;;;;;1.42;nan;98621.53;5030491;28;20300;-57
2023/03/19 06:10:10;;;;;;;434.70;148.43;;;;;;;1.56;nan;98628.53;5030642;28;20054;-57
2023/03/19 06:12:36;;;;;;;441.27;154.73;;;;;;;1.74;nan;98613.63;5028897;28;20291;-58
2023/03/19 06:15:18;;;;;;;434.77;149.10;;;;;;;1.94;nan;98619.00;5028874;28;20047;-58
2023/03/19 06:17:43;;;;;;;440.17;150.10;;;;;;;1.83;nan;98585.97;5029607;28;20929;-58
2023/03/19 06:20:11;;;;;;;440.27;157.00;;;;;;;2.18;nan;98626.09;5038281;28;20052;-58
2023/03/19 06:22:39;;;;;;;442.83;162.17;;;;;;;2.31;nan;98627.97;5025868;28;20762;-58
2023/03/19 06:25:06;;;;;;;440.83;168.77;;;;;;;2.42;nan;98636.53;5027366;28;20291;-59
2023/03/19 06:27:35;;;;;;;444.80;164.27;;;;;;;2.51;nan;98621.47;5031337;28;20279;-59
2023/03/19 06:30:30;;;;;;;443.37;162.53;;;;;;;2.63;nan;98631.72;5025285;28;20285;-59
2023/03/19 06:32:58;;;;;;;443.17;165.43;;;;;;;2.59;nan;98622.41;5045939;28;20303;-60
2023/03/19 06:35:24;;;;;;;445.57;173.03;;;;;;;2.88;nan;98639.66;5028001;28;20304;-59
2023/03/19 06:37:51;;;;;;;445.60;171.03;;;;;;;2.94;nan;98634.63;5034260;28;20037;-60
2023/03/19 06:40:17;;;;;;;449.83;176.93;;;;;;;2.96;nan;98630.44;5030083;28;20311;-60
2023/03/19 06:42:47;;;;;;;442.93;169.50;;;;;;;2.97;nan;98611.91;5029791;28;20435;-59
2023/03/19 06:45:17;;;;;;;448.83;179.70;;;;;;;3.16;nan;98613.78;5032205;28;20394;-59
2023/03/19 06:47:43;;;;;;;453.13;187.97;;;;;;;3.43;nan;98644.44;5025546;28;20846;-59
2023/03/19 06:50:11;;;;;;;451.33;182.37;;;;;;;3.43;nan;98633.47;5027160;28;20303;-60
2023/03/19 06:52:36;;;;;;;452.03;180.73;;;;;;;3.67;nan;98648.88;5038141;28;20785;-59
2023/03/19 06:55:03;;;;;;;450.83;191.87;;;;;;;3.83;nan;98644.78;5030300;28;20665;-62
2023/03/19 06:57:28;;;;;;;453.17;189.40;;;;;;;4.09;nan;98658.50;5027632;28;20076;-60
2023/03/19 06:59:54;;;;;;;448.90;189.40;;;;;;;4.25;nan;98654.38;5026184;28;20387;-60
2023/03/19 07:02:21;;;;;;;446.17;191.57;;;;;;;4.41;nan;98659.53;5025633;28;20065;-59
2023/03/19 07:04:46;;;;;;;453.77;204.23;;;;;;;4.54;nan;98657.94;5027062;28;20052;-62
2023/03/19 07:07:12;;;;;;;455.47;205.03;;;;;;;4.63;nan;98652.91;5026099;28;20355;-61
2023/03/19 07:09:37;;;;;;;453.93;203.87;;;;;;;4.84;nan;98650.44;5024267;28;20425;-60
2023/03/19 07:12:03;;;;;;;458.43;210.13;;;;;;;5.10;nan;98644.59;5026125;28;20041;-59
2023/03/19 07:14:29;;;;;;;465.53;220.93;;;;;;;5.30;nan;98638.75;5026445;28;20041;-60
2023/03/19 07:16:55;;;;;;;461.37;223.93;;;;;;;5.31;nan;98652.28;5025361;28;20128;-59
2023/03/19 07:19:21;;;;;;;451.57;211.97;;;;;;;5.20;nan;98667.53;5028370;28;20335;-56
2023/03/19 07:21:47;;;;;;;463.07;226.70;;;;;;;5.23;nan;98682.78;5028634;28;20410;-60
2023/03/19 07:24:13;;;;;;;465.83;238.53;;;;;;;5.59;nan;98684.56;5028481;28;20357;-58
2023/03/19 07:26:39;;;;;;;468.73;240.87;;;;;;;5.75;nan;98672.69;5027274;28;20464;-58
2023/03/19 07:29:05;;;;;;;466.83;240.50;;;;;;;5.66;nan;98680.31;5028404;28;20502;-58
2023/03/19 07:31:30;;;;;;;462.37;234.33;;;;;;;5.87;nan;98688.00;5027222;28;20156;-58
2023/03/19 07:33:56;;;;;;;466.03;244.97;;;;;;;5.77;nan;98678.66;5027704;28;20263;-57
2023/03/19 07:36:22;;;;;;;467.77;251.30;;;;;;;5.53;nan;98654.88;5026188;28;20523;-57
2023/03/19 07:38:47;;;;;;;471.23;250.87;;;;;;;5.77;nan;98674.38;5028781;28;20045;-58
2023/03/19 07:41:14;;;;;;;469.47;253.63;;;;;;;5.96;nan;98673.59;5027816;28;20110;-59
2023/03/19 07:43:39;;;;;;;468.87;254.90;;;;;;;6.03;nan;98674.44;5027287;28;20432;-58
2023/03/19 07:46:05;;;;;;;470.13;264.73;;;;;;;5.92;nan;98668.50;5026757;28;20283;-57
2023/03/19 07:48:31;;;;;;;468.97;256.63;;;;;;;6.08;nan;98661.72;5035986;28;20467;-58
2023/03/19 07:50:57;;;;;;;469.80;256.63;;;;;;;6.05;nan;98664.25;5029288;28;20033;-58
2023/03/19 07:53:23;;;;;;;472.37;260.10;;;;;;;6.22;nan;98675.28;5028839;28;20141;-59
2023/03/19 07:55:49;;;;;;;476.83;270.17;;;;;;;6.25;nan;98675.25;5025594;28;20779;-59
2023/03/19 07:58:15;;;;;;;470.57;265.77;;;;;;;6.46;nan;98648.91;5028377;28;20295;-58
2023/03/19 08:00:41;;;;;;;474.30;275.70;;;;;;;6.80;nan;98668.34;5024281;28;20095;-58
2023/03/19 08:03:07;;;;;;;474.63;272.20;;;;;;;7.04;nan;98685.25;5025338;28;20296;-58
2023/03/19 08:05:32;;;;;;;475.83;289.43;;;;;;;7.30;nan;98686.81;5027236;28;20041;-59
2023/03/19 08:07:58;;;;;;;476.20;291.00;;;;;;;7.13;nan;98675.84;5028963;28;20117;-57
2023/03/19 08:10:24;;;;;;;476.70;290.53;;;;;;;7.20;nan;98666.50;5027724;28;20041;-57
2023/03/19 08:12:49;;;;;;;480.90;299.90;;;;;;;7.26;nan;98669.00;5029331;28;20508;-58
2023/03/19 08:15:15;;;;;;;479.70;301.50;;;;;;;7.26;nan;98680.03;5029975;28;20456;-59
2023/03/19 08:17:41;;;;;;;481.00;311.70;;;;;;;7.38;nan;98685.94;5027545;28;20099;-58
2023/03/19 08:20:12;;;;;;;481.87;306.83;;;;;;;7.28;nan;98649.44;5025633;28;20107;-58
2023/03/19 08:22:38;;;;;;;484.10;310.30;;;;;;;7.61;nan;98673.88;5027314;28;20041;-55
2023/03/19 08:25:05;;;;;;;484.97;329.77;;;;;;;7.89;nan;98674.56;5026382;28;20832;-58
2023/03/19 08:27:34;;;;;;;486.00;314.57;;;;;;;8.06;nan;98676.09;5026988;28;20367;-57
2023/03/19 08:30:02;;;;;;;485.57;323.87;;;;;;;8.21;nan;98687.91;5029811;28;20410;-57
2023/03/19 08:32:29;;;;;;;487.00;337.37;;;;;;;8.23;nan;98679.34;5029017;28;20398;-59
2023/03/19 08:34:54;;;;;;;486.03;333.80;;;;;;;8.47;nan;98691.09;5024833;28;20287;-61
2023/03/19 08:37:20;;;;;;;485.93;341.10;;;;;;;8.58;nan;98688.41;5033490;28;20861;-57
2023/03/19 08:39:46;;;;;;;490.77;347.10;;;;;;;8.69;nan;98676.41;5026931;28;20073;-57
2023/03/19 08:42:12;;;;;;;486.67;347.00;;;;;;;8.93;nan;98690.59;5028096;28;20288;-60
2023/03/19 08:44:37;;;;;;;493.27;362.87;;;;;;;8.93;nan;98673.56;5023423;28;20371;-61
2023/03/19 08:47:03;;;;;;;487.30;365.13;;;;;;;9.01;nan;98696.47;5026469;28;20478;-57
2023/03/19 08:49:28;;;;;;;489.83;365.03;;;;;;;9.09;nan;98700.63;5027560;28;20052;-55
2023/03/19 08:51:54;;;;;;;493.07;378.37;;;;;;;8.99;nan;98700.78;5027357;28;20045;-53
2023/03/19 08:54:20;;;;;;;488.90;367.43;;;;;;;9.19;nan;98703.94;5029058;28;20536;-59
2023/03/19 08:56:45;;;;;;;494.03;381.53;;;;;;;9.17;nan;98696.25;5029951;28;20106;-60
2023/03/19 08:59:11;;;;;;;493.07;383.80;;;;;;;9.43;nan;98701.06;5024161;28;20041;-55
2023/03/19 09:01:37;;;;;;;491.07;380.00;;;;;;;9.39;nan;98701.09;5029216;28;20084;-55
2023/03/19 09:04:03;;;;;;;495.07;384.77;;;;;;;9.16;nan;98712.47;5027569;28;20037;-54
2023/03/19 09:06:29;;;;;;;492.97;377.60;;;;;;;9.36;nan;98726.75;5032778;28;20484;-55
2023/03/19 09:08:55;;;;;;;491.97;382.83;;;;;;;9.60;nan;98721.28;5031186;28;20218;-55
2023/03/19 09:11:22;;;;;;;494.50;389.53;;;;;;;9.68;nan;98732.28;5031311;28;20786;-54
2023/03/19 09:13:48;;;;;;;500.73;396.33;;;;;;;9.89;nan;98729.41;5029925;28;20057;-52
2023/03/19 09:16:14;;;;;;;500.40;395.87;;;;;;;9.97;nan;98691.72;5028308;28;20296;-54
2023/03/19 09:18:40;;;;;;;503.17;412.10;;;;;;;10.06;nan;98722.31;5030111;28;20190;-58
2023/03/19 09:21:06;;;;;;;501.53;411.93;;;;;;;10.36;nan;98722.72;5030412;28;20249;-62
2023/03/19 09:23:34;;;;;;;505.40;423.80;;;;;;;10.29;nan;98706.63;5030739;28;20048;-61
2023/03/19 09:26:00;;;;;;;500.43;404.20;;;;;;;9.81;nan;98725.25;5027156;28;20485;-62
2023/03/19 09:28:26;;;;;;;502.40;421.83;;;;;;;10.08;nan;98737.66;5030920;28;20129;-62
2023/03/19 09:30:52;;;;;;;506.97;431.07;;;;;;;10.09;nan;98726.56;5028395;28;20033;-61
2023/03/19 09:33:19;;;;;;;507.73;429.80;;;;;;;10.18;nan;98710.22;5033829;28;20104;-63
2023/03/19 09:35:52;;;;;;;501.00;424.87;;;;;;;9.93;nan;98712.31;5029938;28;20029;-62
2023/03/19 09:38:21;;;;;;;502.90;426.37;;;;;;;9.92;nan;98708.91;5027545;28;20314;-60
2023/03/19 09:41:09;;;;;;;503.83;428.50;;;;;;;10.05;nan;98707.00;5026541;28;20495;-61
2023/03/19 09:43:58;;;;;;;501.80;427.97;;;;;;;9.63;nan;98713.59;5032118;28;20350;-60
2023/03/19 09:46:47;;;;;;;503.67;418.87;;;;;;;9.86;nan;98685.94;5031027;28;20034;-61
2023/03/19 09:49:13;;;;;;;501.07;430.47;;;;;;;10.27;nan;98704.97;5028794;28;20406;-62
2023/03/19 09:51:45;;;;;;;497.73;418.87;;;;;;;10.35;nan;98714.22;5030126;28;20376;-60
2023/03/19 09:54:31;;;;;;;503.77;434.53;;;;;;;10.47;nan;98710.59;5029656;28;20049;-62
2023/03/19 09:56:57;;;;;;;502.53;430.83;;;;;;;10.08;nan;98691.56;5029243;28;20284;-62
2023/03/19 09:59:25;;;;;;;506.13;447.13;;;;;;;10.38;nan;98718.44;5029918;28;20846;-61
2023/03/19 10:02:08;;;;;;;555.13;497.63;;;;;;;10.30;nan;98699.78;5026246;28;20041;-58
2023/03/19 10:04:41;;;;;;;577.63;519.37;;;;;;;10.52;nan;98713.94;5030296;28;20291;-62
2023/03/19 10:07:21;;;;;;;581.23;522.80;;;;;;;10.71;nan;98714.44;5031649;28;20291;-60
2023/03/19 10:10:04;;;;;;;629.10;568.70;;;;;;;10.88;nan;98704.69;5029573;28;20292;-61
2023/03/19 10:13:01;;;;;;;617.97;558.53;;;;;;;11.05;nan;98709.50;5031437;28;20280;-61
2023/03/19 10:15:31;;;;;;;;;;;;;;;11.25;nan;98708.22;5031525;28;20387;-61
2023/03/19 10:18:04;;;;;;;610.90;551.63;;;;;;;11.33;nan;98700.41;5029388;28;19972;-61
2023/03/19 10:20:45;;;;;;;607.27;548.07;;;;;;;11.58;nan;98709.25;5029214;28;20299;-60
2023/03/19 10:23:32;;;;;;;662.10;601.63;;;;;;;11.66;nan;98706.50;5030078;28;20303;-60
2023/03/19 10:26:01;;;;;;;669.23;608.77;;;;;;;11.56;nan;98700.72;5030049;28;20553;-59
2023/03/19 10:28:28;;;;;;;707.87;645.87;;;;;;;11.59;nan;98690.38;5028646;28;20407;-60
2023/03/19 10:31:22;;;;;;;691.93;629.97;;;;;;;11.61;nan;98688.63;5030203;28;20416;-61
2023/03/19 10:34:03;;;;;;;697.57;635.47;;;;;;;11.35;nan;98689.19;5026512;28;20535;-60
2023/03/19 10:36:38;;;;;;;727.37;663.87;;;;;;;11.45;nan;98677.88;5026648;28;20663;-61
2023/03/19 10:39:06;;;;;;;739.30;675.63;;;;;;;11.65;nan;98679.13;5028727;28;20784;-61
2023/03/19 10:41:51;;;;;;;763.53;698.63;;;;;;;11.98;nan;98687.81;5022040;28;20071;-61
2023/03/19 10:44:33;;;;;;;531.42;467.13;;;;;;;12.23;nan;98692.34;5028234;28;20069;-61
2023/03/19 10:47:10;;;;;;;522.50;462.03;;;;;;;12.40;nan;98675.63;5027662;28;20617;-62
2023/03/19 10:49:36;;;;;;;511.90;427.83;;;;;;;12.79;nan;98690.88;5025516;28;20048;-62
2023/03/19 10:52:01;;;;;;;624.77;564.30;;;;;;;12.80;nan;98690.00;5027533;28;20539;-61
2023/03/19 10:54:29;;;;;;;702.27;639.50;;;;;;;13.03;nan;98693.66;5036239;28;20072;-62
2023/03/19 10:56:56;;;;;;;766.40;700.90;;;;;;;13.18;nan;98695.84;5030664;28;20033;-63
2023/03/19 10:59:30;;;;;;;674.37;611.83;;;;;;;13.44;nan;98697.66;5026355;28;20107;-63
2023/03/19 11:01:57;;;;;;;623.93;563.50;;;;;;;12.64;nan;98695.59;5026857;28;20047;-61
2023/03/19 11:04:28;;;;;;;671.77;610.63;;;;;;;12.76;nan;98697.84;5021308;28;20199;-61
2023/03/19 11:07:08;;;;;;;723.87;660.27;;;;;;;12.20;nan;98695.00;5029260;28;20322;-61
2023/03/19 11:09:36;;;;;;;710.73;648.60;;;;;;;12.19;nan;98693.28;5027410;28;20508;-61
2023/03/19 11:12:33;;;;;;;698.17;635.87;;;;;;;12.49;nan;98683.97;5029288;28;20195;-61
2023/03/19 11:15:02;;;;;;;725.10;662.33;;;;;;;12.53;nan;98685.56;4974424;28;20106;-61
2023/03/19 11:17:41;;;;;;;742.70;679.87;;;;;;;12.87;nan;98685.50;4960492;28;20506;-60
2023/03/19 11:20:10;;;;;;;752.90;689.97;;;;;;;13.26;nan;98688.75;4974769;28;20978;-61
2023/03/19 11:22:38;;;;;;;734.70;672.27;;;;;;;13.30;nan;98681.75;4958157;28;20220;-61
2023/03/19 11:25:20;;;;;;;782.07;717.67;;;;;;;13.49;nan;98685.50;4973684;28;20112;-62
2023/03/19 11:28:15;;;;;;;783.53;719.03;;;;;;;13.69;nan;98680.59;4972619;28;20045;-61
2023/03/19 11:31:02;;;;;;;795.27;730.60;;;;;;;13.54;nan;98658.69;4975020;28;20141;-60
2023/03/19 11:33:43;;;;;;;790.80;726.27;;;;;;;13.69;nan;98668.56;4976929;28;20093;-61
2023/03/19 11:36:21;;;;;;;789.83;725.73;;;;;;;14.06;nan;98664.78;4954681;28;20146;-61